sensor_id;sensor_type;location;lat;lon;timestamp;P1;durP1;ratioP1;P2;durP2;ratioP2
19671;SDS011;9983;51.114;13.788;2023-03-13T00:02:19;6.85;;;3.05;;
19671;SDS011;9983;51.114;13.788;2023-03-13T00:07:19;8.20;;;3.30;;
19671;SDS011;9983;51.114;13.788;2023-03-13T00:12:19;11.23;;;3.13;;
19671;SDS011;9983;51.114;13.788;2023-03-13T00:17:20;8.15;;;3.30;;
19671;SDS011;9983;51.114;13.788;2023-03-13T00:22:20;8.60;;;3.10;;
19671;SDS011;9983;51.114;13.788;2023-03-13T00:27:20;6.65;;;3.00;;
19671;SDS011;9983;51.114;13.788;2023-03-13T00:32:20;11.98;;;3.67;;
19671;SDS011;9983;51.114;13.788;2023-03-13T00:37:21;9.73;;;3.30;;
19671;SDS011;9983;51.114;13.788;2023-03-13T00:42:21;12.00;;;3.57;;
19671;SDS011;9983;51.114;13.788;2023-03-13T00:47:21;9.05;;;3.90;;
19671;SDS011;9983;51.114;13.788;2023-03-13T00:52:21;12.73;;;2.90;;
19671;SDS011;9983;51.114;13.788;2023-03-13T00:57:23;11.95;;;3.10;;
19671;SDS011;9983;51.114;13.788;2023-03-13T01:02:23;10.32;;;2.95;;
19671;SDS011;9983;51.114;13.788;2023-03-13T01:07:24;9.25;;;3.35;;
19671;SDS011;9983;51.114;13.788;2023-03-13T01:12:25;6.32;;;2.70;;
19671;SDS011;9983;51.114;13.788;2023-03-13T01:17:25;6.82;;;3.55;;
19671;SDS011;9983;51.114;13.788;2023-03-13T01:22:25;9.07;;;3.05;;
19671;SDS011;9983;51.114;13.788;2023-03-13T01:27:26;8.40;;;3.03;;
19671;SDS011;9983;51.114;13.788;2023-03-13T01:32:27;11.82;;;2.97;;
19671;SDS011;9983;51.114;13.788;2023-03-13T01:37:28;11.73;;;3.15;;
19671;SDS011;9983;51.114;13.788;2023-03-13T01:42:28;8.98;;;3.03;;
19671;SDS011;9983;51.114;13.788;2023-03-13T01:47:28;13.40;;;3.53;;
19671;SDS011;9983;51.114;13.788;2023-03-13T01:52:28;11.27;;;2.58;;
19671;SDS011;9983;51.114;13.788;2023-03-13T01:57:34;10.70;;;2.70;;
19671;SDS011;9983;51.114;13.788;2023-03-13T02:02:40;6.45;;;3.00;;
19671;SDS011;9983;51.114;13.788;2023-03-13T02:07:47;13.82;;;3.55;;
19671;SDS011;9983;51.114;13.788;2023-03-13T02:12:51;7.82;;;2.95;;
19671;SDS011;9983;51.114;13.788;2023-03-13T02:17:52;10.48;;;2.92;;
19671;SDS011;9983;51.114;13.788;2023-03-13T02:23:02;14.30;;;2.92;;
19671;SDS011;9983;51.114;13.788;2023-03-13T02:28:12;14.02;;;3.08;;
19671;SDS011;9983;51.114;13.788;2023-03-13T02:33:39;8.82;;;2.58;;
19671;SDS011;9983;51.114;13.788;2023-03-13T02:38:46;9.77;;;2.97;;
19671;SDS011;9983;51.114;13.788;2023-03-13T02:43:52;13.32;;;3.35;;
19671;SDS011;9983;51.114;13.788;2023-03-13T02:48:54;11.75;;;2.75;;
19671;SDS011;9983;51.114;13.788;2023-03-13T02:53:57;12.05;;;3.10;;
19671;SDS011;9983;51.114;13.788;2023-03-13T02:59:00;8.82;;;3.28;;
19671;SDS011;9983;51.114;13.788;2023-03-13T03:04:01;13.20;;;3.58;;
19671;SDS011;9983;51.114;13.788;2023-03-13T03:09:01;10.32;;;3.10;;
19671;SDS011;9983;51.114;13.788;2023-03-13T03:14:01;10.82;;;3.70;;
19671;SDS011;9983;51.114;13.788;2023-03-13T03:19:02;11.93;;;3.33;;
19671;SDS011;9983;51.114;13.788;2023-03-13T03:24:02;11.45;;;3.00;;
19671;SDS011;9983;51.114;13.788;2023-03-13T03:29:03;13.00;;;3.50;;
19671;SDS011;9983;51.114;13.788;2023-03-13T03:34:03;11.32;;;3.70;;
19671;SDS011;9983;51.114;13.788;2023-03-13T03:39:03;10.40;;;3.25;;
19671;SDS011;9983;51.114;13.788;2023-03-13T03:44:04;8.73;;;3.10;;
19671;SDS011;9983;51.114;13.788;2023-03-13T03:49:05;9.75;;;2.70;;
19671;SDS011;9983;51.114;13.788;2023-03-13T03:54:05;7.82;;;2.70;;
19671;SDS011;9983;51.114;13.788;2023-03-13T03:59:05;9.43;;;2.78;;
19671;SDS011;9983;51.114;13.788;2023-03-13T04:04:05;12.95;;;3.03;;
19671;SDS011;9983;51.114;13.788;2023-03-13T04:09:06;8.40;;;2.45;;
19671;SDS011;9983;51.114;13.788;2023-03-13T04:14:06;11.13;;;2.63;;
19671;SDS011;9983;51.114;13.788;2023-03-13T04:19:06;10.00;;;2.70;;
19671;SDS011;9983;51.114;13.788;2023-03-13T04:24:07;18.15;;;3.25;;
19671;SDS011;9983;51.114;13.788;2023-03-13T04:29:07;11.02;;;2.90;;
19671;SDS011;9983;51.114;13.788;2023-03-13T04:34:07;6.35;;;2.10;;
19671;SDS011;9983;51.114;13.788;2023-03-13T04:39:07;8.77;;;3.35;;
19671;SDS011;9983;51.114;13.788;2023-03-13T04:44:08;15.23;;;3.80;;
19671;SDS011;9983;51.114;13.788;2023-03-13T04:49:08;9.23;;;2.97;;
19671;SDS011;9983;51.114;13.788;2023-03-13T04:54:09;9.67;;;2.67;;
19671;SDS011;9983;51.114;13.788;2023-03-13T04:59:10;11.48;;;2.97;;
19671;SDS011;9983;51.114;13.788;2023-03-13T05:04:11;11.20;;;2.70;;
19671;SDS011;9983;51.114;13.788;2023-03-13T05:09:11;12.05;;;3.15;;
19671;SDS011;9983;51.114;13.788;2023-03-13T05:14:12;9.13;;;4.18;;
19671;SDS011;9983;51.114;13.788;2023-03-13T05:19:12;12.25;;;2.90;;
19671;SDS011;9983;51.114;13.788;2023-03-13T05:24:12;12.77;;;3.13;;
19671;SDS011;9983;51.114;13.788;2023-03-13T05:29:12;9.85;;;2.55;;
19671;SDS011;9983;51.114;13.788;2023-03-13T05:34:13;9.68;;;2.25;;
19671;SDS011;9983;51.114;13.788;2023-03-13T05:39:13;8.30;;;2.38;;
19671;SDS011;9983;51.114;13.788;2023-03-13T05:44:13;7.53;;;2.30;;
19671;SDS011;9983;51.114;13.788;2023-03-13T05:49:13;11.67;;;2.77;;
19671;SDS011;9983;51.114;13.788;2023-03-13T05:54:14;9.27;;;2.70;;
19671;SDS011;9983;51.114;13.788;2023-03-13T05:59:14;8.23;;;2.47;;
19671;SDS011;9983;51.114;13.788;2023-03-13T06:04:15;9.52;;;3.15;;
19671;SDS011;9983;51.114;13.788;2023-03-13T06:09:15;7.22;;;2.63;;
19671;SDS011;9983;51.114;13.788;2023-03-13T06:14:15;9.02;;;2.47;;
19671;SDS011;9983;51.114;13.788;2023-03-13T06:19:16;9.73;;;2.55;;
19671;SDS011;9983;51.114;13.788;2023-03-13T06:24:16;7.05;;;2.30;;
19671;SDS011;9983;51.114;13.788;2023-03-13T06:29:17;8.65;;;2.60;;
19671;SDS011;9983;51.114;13.788;2023-03-13T06:34:17;7.68;;;2.45;;
19671;SDS011;9983;51.114;13.788;2023-03-13T06:39:17;12.27;;;3.65;;
19671;SDS011;9983;51.114;13.788;2023-03-13T06:44:18;11.38;;;3.28;;
19671;SDS011;9983;51.114;13.788;2023-03-13T06:49:18;8.02;;;3.10;;
19671;SDS011;9983;51.114;13.788;2023-03-13T06:54:18;8.95;;;2.90;;
19671;SDS011;9983;51.114;13.788;2023-03-13T06:59:18;10.63;;;3.63;;
19671;SDS011;9983;51.114;13.788;2023-03-13T07:04:19;10.32;;;3.50;;
19671;SDS011;9983;51.114;13.788;2023-03-13T07:09:19;7.13;;;3.13;;
19671;SDS011;9983;51.114;13.788;2023-03-13T07:14:20;9.63;;;3.55;;
19671;SDS011;9983;51.114;13.788;2023-03-13T07:19:20;8.35;;;2.95;;
19671;SDS011;9983;51.114;13.788;2023-03-13T07:24:20;9.93;;;3.53;;
19671;SDS011;9983;51.114;13.788;2023-03-13T07:29:21;5.78;;;2.95;;
19671;SDS011;9983;51.114;13.788;2023-03-13T07:34:21;8.30;;;3.47;;
19671;SDS011;9983;51.114;13.788;2023-03-13T07:39:21;5.88;;;2.65;;
19671;SDS011;9983;51.114;13.788;2023-03-13T07:44:21;6.65;;;3.35;;
19671;SDS011;9983;51.114;13.788;2023-03-13T07:49:22;8.13;;;3.50;;
19671;SDS011;9983;51.114;13.788;2023-03-13T07:54:22;6.25;;;3.42;;
19671;SDS011;9983;51.114;13.788;2023-03-13T07:59:22;8.15;;;3.67;;
19671;SDS011;9983;51.114;13.788;2023-03-13T08:04:23;4.22;;;3.60;;
19671;SDS011;9983;51.114;13.788;2023-03-13T08:09:23;11.65;;;4.05;;
19671;SDS011;9983;51.114;13.788;2023-03-13T08:14:23;7.65;;;4.15;;
19671;SDS011;9983;51.114;13.788;2023-03-13T08:19:23;6.50;;;4.18;;
19671;SDS011;9983;51.114;13.788;2023-03-13T08:24:24;8.82;;;4.20;;
19671;SDS011;9983;51.114;13.788;2023-03-13T08:29:24;10.32;;;3.92;;
19671;SDS011;9983;51.114;13.788;2023-03-13T08:34:24;6.85;;;3.95;;
19671;SDS011;9983;51.114;13.788;2023-03-13T08:39:24;9.65;;;4.40;;
19671;SDS011;9983;51.114;13.788;2023-03-13T08:44:24;7.97;;;4.35;;
19671;SDS011;9983;51.114;13.788;2023-03-13T08:49:26;6.47;;;3.97;;
19671;SDS011;9983;51.114;13.788;2023-03-13T08:54:26;7.05;;;4.30;;
19671;SDS011;9983;51.114;13.788;2023-03-13T08:59:26;6.40;;;3.67;;
19671;SDS011;9983;51.114;13.788;2023-03-13T09:04:27;5.35;;;3.75;;
19671;SDS011;9983;51.114;13.788;2023-03-13T09:09:27;5.57;;;3.45;;
19671;SDS011;9983;51.114;13.788;2023-03-13T09:14:27;4.80;;;2.80;;
19671;SDS011;9983;51.114;13.788;2023-03-13T09:19:27;4.72;;;2.42;;
19671;SDS011;9983;51.114;13.788;2023-03-13T09:24:28;5.13;;;2.30;;
19671;SDS011;9983;51.114;13.788;2023-03-13T09:29:28;4.47;;;2.47;;
19671;SDS011;9983;51.114;13.788;2023-03-13T09:34:28;6.00;;;2.30;;
19671;SDS011;9983;51.114;13.788;2023-03-13T09:39:28;4.70;;;2.10;;
19671;SDS011;9983;51.114;13.788;2023-03-13T09:44:33;3.60;;;2.33;;
19671;SDS011;9983;51.114;13.788;2023-03-13T09:49:51;5.50;;;2.22;;
19671;SDS011;9983;51.114;13.788;2023-03-13T09:55:00;3.63;;;2.42;;
19671;SDS011;9983;51.114;13.788;2023-03-13T10:00:12;2.45;;;1.83;;
19671;SDS011;9983;51.114;13.788;2023-03-13T10:05:22;3.05;;;1.90;;
19671;SDS011;9983;51.114;13.788;2023-03-13T10:10:30;1.98;;;1.70;;
19671;SDS011;9983;51.114;13.788;2023-03-13T10:15:42;3.13;;;1.92;;
19671;SDS011;9983;51.114;13.788;2023-03-13T10:20:48;3.78;;;1.52;;
19671;SDS011;9983;51.114;13.788;2023-03-13T10:25:51;2.38;;;1.48;;
19671;SDS011;9983;51.114;13.788;2023-03-13T10:30:53;2.88;;;1.65;;
19671;SDS011;9983;51.114;13.788;2023-03-13T10:36:01;3.53;;;1.60;;
19671;SDS011;9983;51.114;13.788;2023-03-13T10:41:17;1.45;;;1.35;;
19671;SDS011;9983;51.114;13.788;2023-03-13T10:46:23;1.52;;;1.35;;
19671;SDS011;9983;51.114;13.788;2023-03-13T10:51:35;3.22;;;1.60;;
19671;SDS011;9983;51.114;13.788;2023-03-13T10:56:37;3.05;;;1.40;;
19671;SDS011;9983;51.114;13.788;2023-03-13T11:01:40;2.13;;;1.15;;
19671;SDS011;9983;51.114;13.788;2023-03-13T11:06:41;1.05;;;0.90;;
19671;SDS011;9983;51.114;13.788;2023-03-13T11:11:42;2.20;;;0.93;;
19671;SDS011;9983;51.114;13.788;2023-03-13T11:27:48;1.08;;;0.90;;
19671;SDS011;9983;51.114;13.788;2023-03-13T11:33:49;1.52;;;0.77;;
19671;SDS011;9983;51.114;13.788;2023-03-13T11:38:38;2.35;;;0.77;;
19671;SDS011;9983;51.114;13.788;2023-03-13T11:54:32;1.33;;;0.88;;
19671;SDS011;9983;51.114;13.788;2023-03-13T11:59:38;2.05;;;0.93;;
19671;SDS011;9983;51.114;13.788;2023-03-13T12:04:54;0.70;;;0.70;;
19671;SDS011;9983;51.114;13.788;2023-03-13T12:20:38;2.08;;;0.80;;
19671;SDS011;9983;51.114;13.788;2023-03-13T12:25:50;0.85;;;0.82;;
19671;SDS011;9983;51.114;13.788;2023-03-13T12:30:58;0.88;;;0.75;;
19671;SDS011;9983;51.114;13.788;2023-03-13T12:36:05;1.27;;;0.90;;
19671;SDS011;9983;51.114;13.788;2023-03-13T12:41:27;1.40;;;1.00;;
19671;SDS011;9983;51.114;13.788;2023-03-13T12:46:33;1.10;;;1.10;;
19671;SDS011;9983;51.114;13.788;2023-03-13T12:51:43;0.80;;;0.80;;
19671;SDS011;9983;51.114;13.788;2023-03-13T13:02:26;1.20;;;0.85;;
19671;SDS011;9983;51.114;13.788;2023-03-13T13:07:32;1.02;;;0.70;;
19671;SDS011;9983;51.114;13.788;2023-03-13T13:12:35;2.03;;;1.30;;
19671;SDS011;9983;51.114;13.788;2023-03-13T13:17:40;1.33;;;1.10;;
19671;SDS011;9983;51.114;13.788;2023-03-13T13:22:48;1.58;;;0.57;;
19671;SDS011;9983;51.114;13.788;2023-03-13T13:27:49;0.82;;;0.80;;
19671;SDS011;9983;51.114;13.788;2023-03-13T13:32:51;1.02;;;0.85;;
19671;SDS011;9983;51.114;13.788;2023-03-13T13:38:19;1.55;;;1.02;;
19671;SDS011;9983;51.114;13.788;2023-03-13T13:43:20;0.95;;;0.95;;
19671;SDS011;9983;51.114;13.788;2023-03-13T13:48:24;0.98;;;0.98;;
19671;SDS011;9983;51.114;13.788;2023-03-13T13:53:30;1.10;;;0.88;;
19671;SDS011;9983;51.114;13.788;2023-03-13T13:58:42;1.77;;;0.85;;
19671;SDS011;9983;51.114;13.788;2023-03-13T14:03:44;1.42;;;0.98;;
19671;SDS011;9983;51.114;13.788;2023-03-13T14:08:47;0.85;;;0.75;;
19671;SDS011;9983;51.114;13.788;2023-03-13T14:19:20;1.05;;;0.98;;
19671;SDS011;9983;51.114;13.788;2023-03-13T14:24:24;1.77;;;1.10;;
19671;SDS011;9983;51.114;13.788;2023-03-13T14:29:24;1.10;;;1.00;;
19671;SDS011;9983;51.114;13.788;2023-03-13T14:34:26;1.05;;;1.00;;
19671;SDS011;9983;51.114;13.788;2023-03-13T14:39:41;1.15;;;1.10;;
19671;SDS011;9983;51.114;13.788;2023-03-13T14:44:47;1.55;;;0.90;;
19671;SDS011;9983;51.114;13.788;2023-03-13T14:49:53;1.80;;;1.33;;
19671;SDS011;9983;51.114;13.788;2023-03-13T14:54:59;1.95;;;1.17;;
19671;SDS011;9983;51.114;13.788;2023-03-13T15:00:25;0.98;;;0.93;;
19671;SDS011;9983;51.114;13.788;2023-03-13T15:05:31;1.88;;;0.90;;
19671;SDS011;9983;51.114;13.788;2023-03-13T15:10:33;1.02;;;1.02;;
19671;SDS011;9983;51.114;13.788;2023-03-13T15:15:35;2.17;;;1.20;;
19671;SDS011;9983;51.114;13.788;2023-03-13T15:20:36;1.10;;;1.10;;
19671;SDS011;9983;51.114;13.788;2023-03-13T15:25:36;1.73;;;1.00;;
19671;SDS011;9983;51.114;13.788;2023-03-13T15:30:36;1.50;;;1.40;;
19671;SDS011;9983;51.114;13.788;2023-03-13T15:35:36;1.40;;;1.27;;
19671;SDS011;9983;51.114;13.788;2023-03-13T15:40:37;1.67;;;1.50;;
19671;SDS011;9983;51.114;13.788;2023-03-13T15:45:38;1.33;;;1.23;;
19671;SDS011;9983;51.114;13.788;2023-03-13T15:50:41;1.38;;;1.27;;
19671;SDS011;9983;51.114;13.788;2023-03-13T15:55:42;1.27;;;1.17;;
19671;SDS011;9983;51.114;13.788;2023-03-13T16:00:42;1.30;;;1.20;;
19671;SDS011;9983;51.114;13.788;2023-03-13T16:05:43;1.08;;;0.98;;
19671;SDS011;9983;51.114;13.788;2023-03-13T16:10:45;1.10;;;0.90;;
19671;SDS011;9983;51.114;13.788;2023-03-13T16:15:46;1.23;;;1.13;;
19671;SDS011;9983;51.114;13.788;2023-03-13T16:20:48;1.10;;;1.00;;
19671;SDS011;9983;51.114;13.788;2023-03-13T16:25:48;0.93;;;0.93;;
19671;SDS011;9983;51.114;13.788;2023-03-13T16:30:49;0.85;;;0.85;;
19671;SDS011;9983;51.114;13.788;2023-03-13T16:35:49;1.10;;;1.10;;
19671;SDS011;9983;51.114;13.788;2023-03-13T16:40:53;1.20;;;1.10;;
19671;SDS011;9983;51.114;13.788;2023-03-13T16:45:53;1.17;;;1.02;;
19671;SDS011;9983;51.114;13.788;2023-03-13T16:50:53;0.77;;;0.77;;
19671;SDS011;9983;51.114;13.788;2023-03-13T16:55:54;0.90;;;0.90;;
19671;SDS011;9983;51.114;13.788;2023-03-13T17:00:54;0.98;;;0.98;;
19671;SDS011;9983;51.114;13.788;2023-03-13T17:05:54;0.98;;;0.98;;
19671;SDS011;9983;51.114;13.788;2023-03-13T17:10:55;2.20;;;2.00;;
19671;SDS011;9983;51.114;13.788;2023-03-13T17:15:55;5.53;;;3.38;;
19671;SDS011;9983;51.114;13.788;2023-03-13T17:20:55;5.83;;;3.93;;
19671;SDS011;9983;51.114;13.788;2023-03-13T17:25:56;2.00;;;1.30;;
19671;SDS011;9983;51.114;13.788;2023-03-13T17:30:56;1.40;;;1.30;;
19671;SDS011;9983;51.114;13.788;2023-03-13T17:35:56;2.15;;;1.40;;
19671;SDS011;9983;51.114;13.788;2023-03-13T17:40:57;1.40;;;1.30;;
19671;SDS011;9983;51.114;13.788;2023-03-13T17:45:57;1.45;;;1.35;;
19671;SDS011;9983;51.114;13.788;2023-03-13T17:50:57;1.67;;;1.30;;
19671;SDS011;9983;51.114;13.788;2023-03-13T17:55:57;1.55;;;1.27;;
19671;SDS011;9983;51.114;13.788;2023-03-13T18:00:58;1.63;;;1.50;;
19671;SDS011;9983;51.114;13.788;2023-03-13T18:05:58;1.77;;;1.63;;
19671;SDS011;9983;51.114;13.788;2023-03-13T18:10:58;2.35;;;1.65;;
19671;SDS011;9983;51.114;13.788;2023-03-13T18:15:58;1.95;;;1.45;;
19671;SDS011;9983;51.114;13.788;2023-03-13T18:20:59;1.63;;;1.50;;
19671;SDS011;9983;51.114;13.788;2023-03-13T18:25:59;2.15;;;1.60;;
19671;SDS011;9983;51.114;13.788;2023-03-13T18:31:00;2.47;;;1.60;;
19671;SDS011;9983;51.114;13.788;2023-03-13T18:36:00;2.00;;;1.60;;
19671;SDS011;9983;51.114;13.788;2023-03-13T18:41:00;2.80;;;1.73;;
19671;SDS011;9983;51.114;13.788;2023-03-13T18:46:00;2.22;;;1.50;;
19671;SDS011;9983;51.114;13.788;2023-03-13T18:51:01;1.93;;;1.53;;
19671;SDS011;9983;51.114;13.788;2023-03-13T18:56:14;1.98;;;1.77;;
19671;SDS011;9983;51.114;13.788;2023-03-13T19:01:23;2.47;;;1.65;;
19671;SDS011;9983;51.114;13.788;2023-03-13T19:06:26;1.75;;;1.58;;
19671;SDS011;9983;51.114;13.788;2023-03-13T19:11:29;1.67;;;1.40;;
19671;SDS011;9983;51.114;13.788;2023-03-13T19:16:34;3.10;;;1.65;;
19671;SDS011;9983;51.114;13.788;2023-03-13T19:21:48;2.15;;;1.80;;
19671;SDS011;9983;51.114;13.788;2023-03-13T19:26:51;2.10;;;1.90;;
19671;SDS011;9983;51.114;13.788;2023-03-13T19:31:57;1.85;;;1.63;;
19671;SDS011;9983;51.114;13.788;2023-03-13T19:37:03;4.75;;;2.83;;
19671;SDS011;9983;51.114;13.788;2023-03-13T19:42:04;4.25;;;2.65;;
19671;SDS011;9983;51.114;13.788;2023-03-13T19:47:08;2.13;;;1.88;;
19671;SDS011;9983;51.114;13.788;2023-03-13T19:52:12;3.15;;;1.73;;
19671;SDS011;9983;51.114;13.788;2023-03-13T19:57:12;2.50;;;2.05;;
19671;SDS011;9983;51.114;13.788;2023-03-13T20:02:13;2.70;;;1.95;;
19671;SDS011;9983;51.114;13.788;2023-03-13T20:07:13;3.80;;;2.50;;
19671;SDS011;9983;51.114;13.788;2023-03-13T20:12:13;2.47;;;2.25;;
19671;SDS011;9983;51.114;13.788;2023-03-13T20:17:13;2.92;;;2.40;;
19671;SDS011;9983;51.114;13.788;2023-03-13T20:22:14;4.22;;;2.50;;
19671;SDS011;9983;51.114;13.788;2023-03-13T20:27:14;2.85;;;1.83;;
19671;SDS011;9983;51.114;13.788;2023-03-13T20:32:15;4.80;;;2.00;;
19671;SDS011;9983;51.114;13.788;2023-03-13T20:37:15;3.25;;;1.90;;
19671;SDS011;9983;51.114;13.788;2023-03-13T20:42:15;1.80;;;1.70;;
19671;SDS011;9983;51.114;13.788;2023-03-13T20:47:16;2.15;;;1.58;;
19671;SDS011;9983;51.114;13.788;2023-03-13T20:52:16;2.10;;;1.42;;
19671;SDS011;9983;51.114;13.788;2023-03-13T20:57:16;2.75;;;1.40;;
19671;SDS011;9983;51.114;13.788;2023-03-13T21:02:18;1.33;;;1.20;;
19671;SDS011;9983;51.114;13.788;2023-03-13T21:07:19;1.10;;;1.10;;
19671;SDS011;9983;51.114;13.788;2023-03-13T21:12:19;1.75;;;1.00;;
19671;SDS011;9983;51.114;13.788;2023-03-13T21:17:20;1.25;;;1.10;;
19671;SDS011;9983;51.114;13.788;2023-03-13T21:22:20;2.97;;;1.00;;
19671;SDS011;9983;51.114;13.788;2023-03-13T21:27:22;3.28;;;2.75;;
19671;SDS011;9983;51.114;13.788;2023-03-13T21:32:23;1.67;;;1.20;;
19671;SDS011;9983;51.114;13.788;2023-03-13T21:37:23;1.40;;;1.20;;
19671;SDS011;9983;51.114;13.788;2023-03-13T21:42:23;2.45;;;2.20;;
19671;SDS011;9983;51.114;13.788;2023-03-13T21:47:24;1.25;;;1.17;;
19671;SDS011;9983;51.114;13.788;2023-03-13T21:52:24;1.95;;;1.20;;
19671;SDS011;9983;51.114;13.788;2023-03-13T21:57:24;0.98;;;0.90;;
19671;SDS011;9983;51.114;13.788;2023-03-13T22:02:25;0.77;;;0.77;;
19671;SDS011;9983;51.114;13.788;2023-03-13T22:07:25;1.05;;;0.95;;
19671;SDS011;9983;51.114;13.788;2023-03-13T22:12:25;1.08;;;1.08;;
19671;SDS011;9983;51.114;13.788;2023-03-13T22:17:25;1.37;;;1.00;;
19671;SDS011;9983;51.114;13.788;2023-03-13T22:22:26;1.40;;;1.30;;
19671;SDS011;9983;51.114;13.788;2023-03-13T22:27:26;1.23;;;1.13;;
19671;SDS011;9983;51.114;13.788;2023-03-13T22:32:26;1.50;;;1.40;;
19671;SDS011;9983;51.114;13.788;2023-03-13T22:37:26;2.25;;;1.60;;
19671;SDS011;9983;51.114;13.788;2023-03-13T22:42:27;1.55;;;1.45;;
19671;SDS011;9983;51.114;13.788;2023-03-13T22:47:27;1.33;;;1.23;;
19671;SDS011;9983;51.114;13.788;2023-03-13T22:52:27;1.60;;;1.50;;
19671;SDS011;9983;51.114;13.788;2023-03-13T22:57:29;1.50;;;1.40;;
19671;SDS011;9983;51.114;13.788;2023-03-13T23:02:30;3.00;;;1.52;;
19671;SDS011;9983;51.114;13.788;2023-03-13T23:07:30;1.95;;;1.33;;
19671;SDS011;9983;51.114;13.788;2023-03-13T23:12:31;0.80;;;0.80;;
19671;SDS011;9983;51.114;13.788;2023-03-13T23:17:32;1.45;;;1.20;;
19671;SDS011;9983;51.114;13.788;2023-03-13T23:22:33;1.83;;;1.13;;
19671;SDS011;9983;51.114;13.788;2023-03-13T23:27:33;2.00;;;1.05;;
19671;SDS011;9983;51.114;13.788;2023-03-13T23:32:35;1.50;;;1.40;;
19671;SDS011;9983;51.114;13.788;2023-03-13T23:37:36;1.38;;;1.27;;
19671;SDS011;9983;51.114;13.788;2023-03-13T23:42:36;3.13;;;1.58;;
19671;SDS011;9983;51.114;13.788;2023-03-13T23:47:36;2.10;;;1.30;;
19671;SDS011;9983;51.114;13.788;2023-03-13T23:52:37;3.95;;;1.20;;
19671;SDS011;9983;51.114;13.788;2023-03-13T23:57:37;1.00;;;1.00;;
